Weather at Vilsbiburg Airfield

Public forecast

Using degrees Celsius for public forecast. Weather courtesy of forecast.io.

Closest aviation weather report (METAR) to Vilsbiburg Airfield

Closest report is Munich Airport, 22.7 nm (42.1 km) W.

2024/06/15 16:50 (retrieved 22 minutes ago)

EDDM 151650Z AUTO 19005KT 160V230 9999 -SHRA BKN048 FEW///TCU 18/12 Q1011 NOSIG

Closest aviation forecast (TAF) to Vilsbiburg Airfield

Closest forecast is Munich Airport, 22.7 nm (42.1 km) W.

2024/06/15 12:27 (retrieved 5 hours ago)

TAF EDDM 151100Z 1512/1618 25010KT 9999 BKN040 BECMG 1517/1519 20005KT PROB30 TEMPO 1520/1523 RA BECMG 1616/1618 VRB03KT